N391DM LSZR-LSZA
Flight info
| Callsign | N391DM |
|---|---|
| Flight time | N/A |
| Altitude | 15000 |
| Route | TRA N850 ODINA |
| Aircraft | BE58/L-SDFGRY/C |
Departure
| Time | 2026-05-07 22:17 |
|---|---|
| Airport | Sankt Gallen Altenrhein Airport (LSZR) |
Arrival
| Time | N/A |
|---|---|
| Airport | Lugano Airport (LSZA) |
| Time | Latitude | Longitude | Altitude | Speed | Heading |
|---|---|---|---|---|---|
| 2026-05-07 21:56 | 47.48826 | 9.55376 | 1309 ft | 0 kts | 104° |
| 2026-05-07 22:09 | 47.48825 | 9.55376 | 1309 ft | 0 kts | 103° |
| 2026-05-07 22:09 | 47.48820 | 9.55418 | 1309 ft | 7 kts | 97° |
| 2026-05-07 22:10 | 47.48813 | 9.55507 | 1309 ft | 10 kts | 96° |
| 2026-05-07 22:10 | 47.48809 | 9.55601 | 1309 ft | 5 kts | 96° |
| 2026-05-07 22:10 | 47.48791 | 9.55638 | 1309 ft | 4 kts | 175° |
| 2026-05-07 22:10 | 47.48763 | 9.55628 | 1309 ft | 5 kts | 187° |
| 2026-05-07 22:11 | 47.48726 | 9.55620 | 1309 ft | 6 kts | 189° |
| 2026-05-07 22:11 | 47.48702 | 9.55654 | 1309 ft | 7 kts | 93° |
| 2026-05-07 22:11 | 47.48695 | 9.55736 | 1309 ft | 10 kts | 100° |
| 2026-05-07 22:11 | 47.48683 | 9.55839 | 1309 ft | 11 kts | 98° |
| 2026-05-07 22:12 | 47.48672 | 9.55952 | 1309 ft | 12 kts | 99° |
| 2026-05-07 22:12 | 47.48658 | 9.56075 | 1309 ft | 13 kts | 100° |
| 2026-05-07 22:12 | 47.48643 | 9.56206 | 1309 ft | 13 kts | 97° |
| 2026-05-07 22:12 | 47.48631 | 9.56337 | 1309 ft | 12 kts | 99° |
| 2026-05-07 22:13 | 47.48617 | 9.56450 | 1309 ft | 10 kts | 98° |
| 2026-05-07 22:13 | 47.48606 | 9.56548 | 1309 ft | 9 kts | 99° |
| 2026-05-07 22:13 | 47.48597 | 9.56650 | 1309 ft | 11 kts | 99° |
| 2026-05-07 22:13 | 47.48584 | 9.56779 | 1309 ft | 13 kts | 96° |
| 2026-05-07 22:14 | 47.48573 | 9.56903 | 1309 ft | 11 kts | 102° |
| 2026-05-07 22:14 | 47.48561 | 9.57003 | 1309 ft | 9 kts | 97° |
| 2026-05-07 22:14 | 47.48558 | 9.57044 | 1309 ft | 0 kts | 95° |
| 2026-05-07 22:15 | 47.48558 | 9.57045 | 1309 ft | 0 kts | 94° |
| 2026-05-07 22:15 | 47.48556 | 9.57058 | 1309 ft | 6 kts | 108° |
| 2026-05-07 22:15 | 47.48485 | 9.57077 | 1310 ft | 14 kts | 186° |
| 2026-05-07 22:16 | 47.48407 | 9.57054 | 1311 ft | 9 kts | 239° |
| 2026-05-07 22:16 | 47.48417 | 9.56906 | 1309 ft | 26 kts | 278° |
| 2026-05-07 22:16 | 47.48478 | 9.56327 | 1309 ft | 88 kts | 280° |
| 2026-05-07 22:16 | 47.48586 | 9.55280 | 1487 ft | 116 kts | 276° |
| 2026-05-07 22:17 | 47.48676 | 9.54032 | 1824 ft | 127 kts | 275° |
| 2026-05-07 22:17 | 47.48822 | 9.52705 | 2131 ft | 137 kts | 285° |
| 2026-05-07 22:17 | 47.49116 | 9.51344 | 2516 ft | 140 kts | 297° |
| 2026-05-07 22:17 | 47.49857 | 9.50436 | 2880 ft | 142 kts | 342° |
| 2026-05-07 22:18 | 47.50825 | 9.50418 | 3252 ft | 141 kts | 15° |
| 2026-05-07 22:18 | 47.52769 | 9.51049 | 3947 ft | 144 kts | 12° |
| 2026-05-07 22:18 | 47.53746 | 9.51357 | 4279 ft | 146 kts | 11° |
| 2026-05-07 22:19 | 47.54749 | 9.51671 | 4624 ft | 148 kts | 10° |
| 2026-05-07 22:19 | 47.55760 | 9.51984 | 4959 ft | 149 kts | 9° |
| 2026-05-07 22:19 | 47.56749 | 9.51809 | 5273 ft | 145 kts | 323° |
| 2026-05-07 22:19 | 47.57286 | 9.50610 | 5573 ft | 141 kts | 284° |
| 2026-05-07 22:20 | 47.57410 | 9.49174 | 5881 ft | 141 kts | 274° |
| 2026-05-07 22:20 | 47.57535 | 9.47737 | 6198 ft | 141 kts | 277° |
| 2026-05-07 22:20 | 47.57685 | 9.46301 | 6499 ft | 141 kts | 277° |
| 2026-05-07 22:20 | 47.57843 | 9.44883 | 6772 ft | 141 kts | 277° |
| 2026-05-07 22:21 | 47.58004 | 9.43446 | 7044 ft | 141 kts | 277° |
| 2026-05-07 22:21 | 47.58168 | 9.42013 | 7301 ft | 141 kts | 277° |
| 2026-05-07 22:21 | 47.58332 | 9.40575 | 7542 ft | 142 kts | 277° |
| 2026-05-07 22:21 | 47.58496 | 9.39136 | 7772 ft | 142 kts | 277° |
| 2026-05-07 22:22 | 47.58660 | 9.37696 | 7991 ft | 142 kts | 277° |
| 2026-05-07 22:22 | 47.58823 | 9.36256 | 8195 ft | 142 kts | 276° |
| 2026-05-07 22:22 | 47.58988 | 9.34811 | 8388 ft | 142 kts | 276° |
| 2026-05-07 22:22 | 47.59151 | 9.33370 | 8567 ft | 142 kts | 276° |
| 2026-05-07 22:23 | 47.59316 | 9.31925 | 8762 ft | 142 kts | 276° |
| 2026-05-07 22:23 | 47.59478 | 9.30479 | 8986 ft | 143 kts | 276° |
| 2026-05-07 22:23 | 47.59647 | 9.29048 | 9202 ft | 143 kts | 276° |
| 2026-05-07 22:23 | 47.59800 | 9.27596 | 9363 ft | 142 kts | 276° |
| 2026-05-07 22:24 | 47.59965 | 9.26151 | 9509 ft | 143 kts | 276° |
| 2026-05-07 22:24 | 47.60134 | 9.24702 | 9659 ft | 142 kts | 276° |
| 2026-05-07 22:24 | 47.60296 | 9.23252 | 9792 ft | 143 kts | 275° |
| 2026-05-07 22:24 | 47.60452 | 9.21797 | 9883 ft | 143 kts | 276° |
| 2026-05-07 22:25 | 47.60625 | 9.20343 | 9988 ft | 143 kts | 276° |
| 2026-05-07 22:25 | 47.60782 | 9.18883 | 10039 ft | 143 kts | 275° |
| 2026-05-07 22:25 | 47.60942 | 9.17421 | 10049 ft | 143 kts | 275° |
| 2026-05-07 22:25 | 47.61067 | 9.15962 | 10108 ft | 141 kts | 262° |
| 2026-05-07 22:26 | 47.60602 | 9.14739 | 10191 ft | 139 kts | 227° |
| 2026-05-07 22:26 | 47.59952 | 9.13687 | 10274 ft | 137 kts | 232° |
| 2026-05-07 22:26 | 47.59351 | 9.12589 | 10361 ft | 142 kts | 232° |
| 2026-05-07 22:26 | 47.58736 | 9.11443 | 10581 ft | 142 kts | 233° |
| 2026-05-07 22:27 | 47.58131 | 9.10288 | 10773 ft | 142 kts | 233° |
| 2026-05-07 22:27 | 47.57521 | 9.09131 | 10995 ft | 143 kts | 233° |
| 2026-05-07 22:27 | 47.56911 | 9.07970 | 11248 ft | 143 kts | 233° |
| 2026-05-07 22:27 | 47.56295 | 9.06808 | 11452 ft | 144 kts | 233° |
| 2026-05-07 22:28 | 47.55676 | 9.05636 | 11632 ft | 145 kts | 233° |
| 2026-05-07 22:28 | 47.55060 | 9.04458 | 11815 ft | 145 kts | 233° |
| 2026-05-07 22:28 | 47.54440 | 9.03299 | 12020 ft | 146 kts | 233° |
| 2026-05-07 22:28 | 47.53821 | 9.02114 | 12243 ft | 146 kts | 233° |
| 2026-05-07 22:29 | 47.53194 | 9.00924 | 12447 ft | 147 kts | 232° |
| 2026-05-07 22:29 | 47.52558 | 8.99732 | 12636 ft | 148 kts | 233° |
| 2026-05-07 22:29 | 47.51925 | 8.98530 | 12851 ft | 148 kts | 232° |
| 2026-05-07 22:29 | 47.51286 | 8.97314 | 12988 ft | 154 kts | 233° |
| 2026-05-07 22:30 | 47.50604 | 8.96037 | 12996 ft | 161 kts | 232° |
| 2026-05-07 22:30 | 47.49903 | 8.94716 | 13006 ft | 165 kts | 233° |
| 2026-05-07 22:30 | 47.49200 | 8.93377 | 13002 ft | 167 kts | 233° |
| 2026-05-07 22:30 | 47.48483 | 8.92027 | 13006 ft | 167 kts | 232° |
| 2026-05-07 22:31 | 47.47756 | 8.90660 | 13005 ft | 169 kts | 233° |
| 2026-05-07 22:31 | 47.47027 | 8.89278 | 13004 ft | 171 kts | 232° |
| 2026-05-07 22:31 | 47.46291 | 8.87897 | 13004 ft | 171 kts | 232° |
| 2026-05-07 22:31 | 47.45562 | 8.86518 | 13006 ft | 170 kts | 232° |
| 2026-05-07 22:32 | 47.44829 | 8.85149 | 13005 ft | 170 kts | 232° |
| 2026-05-07 22:32 | 47.44102 | 8.83769 | 13006 ft | 172 kts | 233° |
| 2026-05-07 22:32 | 47.43356 | 8.82379 | 12999 ft | 173 kts | 232° |
| 2026-05-07 22:32 | 47.42618 | 8.80988 | 13008 ft | 172 kts | 232° |
| 2026-05-07 22:33 | 47.41887 | 8.79603 | 13008 ft | 173 kts | 232° |
| 2026-05-07 22:33 | 47.41141 | 8.78221 | 13007 ft | 172 kts | 232° |
| 2026-05-07 22:33 | 47.40404 | 8.76838 | 13006 ft | 170 kts | 232° |
| 2026-05-07 22:33 | 47.39672 | 8.75467 | 13004 ft | 170 kts | 232° |
| 2026-05-07 22:34 | 47.38941 | 8.74095 | 13006 ft | 170 kts | 232° |
| 2026-05-07 22:34 | 47.38211 | 8.72728 | 13003 ft | 169 kts | 232° |
| 2026-05-07 22:34 | 47.37484 | 8.71368 | 13003 ft | 169 kts | 232° |
| 2026-05-07 22:34 | 47.36758 | 8.70007 | 13004 ft | 169 kts | 232° |
| 2026-05-07 22:35 | 47.36034 | 8.68640 | 13010 ft | 169 kts | 232° |
| 2026-05-07 22:35 | 47.35300 | 8.67272 | 13007 ft | 170 kts | 232° |
| 2026-05-07 22:35 | 47.34566 | 8.65914 | 13007 ft | 169 kts | 232° |
| 2026-05-07 22:35 | 47.33843 | 8.64556 | 13004 ft | 168 kts | 232° |
| 2026-05-07 22:36 | 47.33120 | 8.63200 | 13008 ft | 168 kts | 232° |
| 2026-05-07 22:36 | 47.32394 | 8.61861 | 13006 ft | 171 kts | 232° |
| 2026-05-07 22:36 | 47.31662 | 8.60485 | 13005 ft | 170 kts | 232° |
| 2026-05-07 22:36 | 47.30925 | 8.59116 | 13007 ft | 171 kts | 232° |
| 2026-05-07 22:37 | 47.30185 | 8.57733 | 13005 ft | 172 kts | 232° |
| 2026-05-07 22:37 | 47.29446 | 8.56357 | 13006 ft | 170 kts | 232° |
| 2026-05-07 22:37 | 47.28710 | 8.54983 | 13007 ft | 170 kts | 232° |
| 2026-05-07 22:37 | 47.27969 | 8.53610 | 13004 ft | 171 kts | 232° |
| 2026-05-07 22:38 | 47.27229 | 8.52239 | 13005 ft | 171 kts | 231° |
| 2026-05-07 22:38 | 47.26333 | 8.51083 | 13000 ft | 173 kts | 213° |
| 2026-05-07 22:38 | 47.25233 | 8.50412 | 12997 ft | 175 kts | 197° |
| 2026-05-07 22:38 | 47.24003 | 8.50291 | 13000 ft | 180 kts | 179° |
| 2026-05-07 22:39 | 47.22754 | 8.50496 | 12984 ft | 181 kts | 179° |
| 2026-05-07 22:39 | 47.21497 | 8.50662 | 12981 ft | 181 kts | 180° |
| 2026-05-07 22:39 | 47.20243 | 8.50827 | 12982 ft | 181 kts | 179° |
| 2026-05-07 22:39 | 47.18990 | 8.51024 | 12981 ft | 181 kts | 178° |
| 2026-05-07 22:40 | 47.17742 | 8.51220 | 12985 ft | 180 kts | 179° |
| 2026-05-07 22:40 | 47.16488 | 8.51387 | 12977 ft | 181 kts | 179° |
| 2026-05-07 22:40 | 47.15233 | 8.51561 | 12982 ft | 182 kts | 178° |
| 2026-05-07 22:40 | 47.13969 | 8.51762 | 12972 ft | 182 kts | 179° |
| 2026-05-07 22:41 | 47.12711 | 8.51939 | 12977 ft | 181 kts | 179° |
| 2026-05-07 22:41 | 47.11471 | 8.52115 | 12978 ft | 182 kts | 178° |
| 2026-05-07 22:41 | 47.10206 | 8.52304 | 12976 ft | 182 kts | 179° |
| 2026-05-07 22:41 | 47.08944 | 8.52488 | 13003 ft | 183 kts | 179° |
| 2026-05-07 22:42 | 47.07671 | 8.52676 | 13000 ft | 185 kts | 178° |
| 2026-05-07 22:42 | 47.06397 | 8.52853 | 13002 ft | 183 kts | 179° |
| 2026-05-07 22:42 | 47.05129 | 8.53034 | 12995 ft | 183 kts | 179° |
| 2026-05-07 22:42 | 47.03865 | 8.53217 | 12998 ft | 182 kts | 178° |
| 2026-05-07 22:43 | 47.02608 | 8.53414 | 13007 ft | 181 kts | 179° |
| 2026-05-07 22:43 | 47.01374 | 8.53581 | 13088 ft | 176 kts | 178° |
| 2026-05-07 22:43 | 47.00173 | 8.53755 | 13217 ft | 170 kts | 178° |
| 2026-05-07 22:43 | 46.98993 | 8.53930 | 13345 ft | 170 kts | 178° |
| 2026-05-07 22:44 | 46.97810 | 8.54101 | 13451 ft | 171 kts | 179° |
| 2026-05-07 22:44 | 46.96625 | 8.54266 | 13553 ft | 171 kts | 179° |
| 2026-05-07 22:44 | 46.95457 | 8.54435 | 13679 ft | 171 kts | 179° |
| 2026-05-07 22:44 | 46.94267 | 8.54605 | 13787 ft | 172 kts | 178° |
| 2026-05-07 22:45 | 46.93077 | 8.54779 | 13914 ft | 172 kts | 178° |
| 2026-05-07 22:45 | 46.91883 | 8.54954 | 14017 ft | 173 kts | 178° |
| 2026-05-07 22:45 | 46.90686 | 8.55123 | 14144 ft | 172 kts | 178° |
| 2026-05-07 22:45 | 46.89503 | 8.55292 | 14219 ft | 171 kts | 178° |
| 2026-05-07 22:46 | 46.88309 | 8.55465 | 14285 ft | 173 kts | 178° |
| 2026-05-07 22:46 | 46.87108 | 8.55632 | 14392 ft | 172 kts | 178° |
| 2026-05-07 22:46 | 46.85916 | 8.55810 | 14480 ft | 173 kts | 178° |
| 2026-05-07 22:46 | 46.84717 | 8.55980 | 14531 ft | 173 kts | 178° |
| 2026-05-07 22:47 | 46.83520 | 8.56153 | 14587 ft | 173 kts | 178° |
| 2026-05-07 22:47 | 46.82324 | 8.56324 | 14650 ft | 172 kts | 179° |
| 2026-05-07 22:47 | 46.81143 | 8.56495 | 14708 ft | 174 kts | 178° |
| 2026-05-07 22:47 | 46.79927 | 8.56666 | 14754 ft | 174 kts | 179° |
| 2026-05-07 22:48 | 46.78742 | 8.56834 | 14830 ft | 170 kts | 178° |
| 2026-05-07 22:48 | 46.77575 | 8.57011 | 14948 ft | 168 kts | 179° |
| 2026-05-07 22:48 | 46.76393 | 8.57168 | 14995 ft | 174 kts | 178° |
| 2026-05-07 22:48 | 46.75167 | 8.57348 | 14994 ft | 178 kts | 178° |
| 2026-05-07 22:49 | 46.73954 | 8.57514 | 14986 ft | 170 kts | 178° |
| 2026-05-07 22:49 | 46.72779 | 8.57691 | 14997 ft | 171 kts | 178° |
| 2026-05-07 22:49 | 46.71579 | 8.57863 | 14998 ft | 175 kts | 179° |
| 2026-05-07 22:49 | 46.70363 | 8.58033 | 14995 ft | 175 kts | 178° |
| 2026-05-07 22:50 | 46.69150 | 8.58209 | 14998 ft | 175 kts | 178° |
| 2026-05-07 22:50 | 46.67941 | 8.58379 | 14994 ft | 174 kts | 178° |
| 2026-05-07 22:50 | 46.66741 | 8.58557 | 14999 ft | 173 kts | 178° |
| 2026-05-07 22:50 | 46.65540 | 8.58720 | 14993 ft | 173 kts | 179° |
| 2026-05-07 22:51 | 46.64346 | 8.58891 | 14996 ft | 175 kts | 178° |
| 2026-05-07 22:51 | 46.63130 | 8.59067 | 14998 ft | 175 kts | 178° |
| 2026-05-07 22:51 | 46.61911 | 8.59240 | 15002 ft | 176 kts | 178° |
| 2026-05-07 22:51 | 46.60687 | 8.59414 | 14998 ft | 177 kts | 178° |
| 2026-05-07 22:52 | 46.59455 | 8.59588 | 15003 ft | 177 kts | 178° |
| 2026-05-07 22:52 | 46.58218 | 8.59766 | 15000 ft | 179 kts | 178° |
| 2026-05-07 22:52 | 46.56975 | 8.59936 | 15002 ft | 179 kts | 179° |
| 2026-05-07 22:52 | 46.56152 | 8.60054 | 14999 ft | 180 kts | 178° |
| 2026-05-07 22:53 | 46.54907 | 8.60235 | 15005 ft | 180 kts | 179° |
| 2026-05-07 22:53 | 46.53658 | 8.60411 | 15005 ft | 180 kts | 178° |
| 2026-05-07 22:53 | 46.52411 | 8.60587 | 15005 ft | 180 kts | 179° |
| 2026-05-07 22:53 | 46.51167 | 8.60764 | 14969 ft | 180 kts | 178° |
| 2026-05-07 22:54 | 46.49912 | 8.60941 | 14899 ft | 182 kts | 179° |
| 2026-05-07 22:54 | 46.48644 | 8.61122 | 14830 ft | 184 kts | 178° |
| 2026-05-07 22:54 | 46.47358 | 8.61300 | 14758 ft | 186 kts | 178° |
| 2026-05-07 22:54 | 46.46080 | 8.61483 | 14685 ft | 187 kts | 178° |
| 2026-05-07 22:55 | 46.44787 | 8.61664 | 14612 ft | 186 kts | 178° |
| 2026-05-07 22:55 | 46.43494 | 8.61854 | 14541 ft | 187 kts | 178° |
| 2026-05-07 22:55 | 46.42190 | 8.62032 | 14472 ft | 190 kts | 178° |
| 2026-05-07 22:55 | 46.40857 | 8.62217 | 14403 ft | 193 kts | 178° |
| 2026-05-07 22:56 | 46.39520 | 8.62408 | 14329 ft | 191 kts | 177° |
| 2026-05-07 22:56 | 46.38195 | 8.62602 | 14257 ft | 191 kts | 178° |
| 2026-05-07 22:56 | 46.36872 | 8.62782 | 14184 ft | 191 kts | 178° |
| 2026-05-07 22:56 | 46.35545 | 8.62967 | 14110 ft | 192 kts | 178° |
| 2026-05-07 22:57 | 46.34214 | 8.63158 | 14038 ft | 192 kts | 178° |
| 2026-05-07 22:57 | 46.32893 | 8.63351 | 13968 ft | 194 kts | 178° |
| 2026-05-07 22:57 | 46.31544 | 8.63533 | 13869 ft | 195 kts | 178° |
| 2026-05-07 22:57 | 46.30180 | 8.63721 | 13770 ft | 198 kts | 178° |
| 2026-05-07 22:58 | 46.28806 | 8.63918 | 13663 ft | 199 kts | 178° |
| 2026-05-07 22:58 | 46.27439 | 8.64103 | 13546 ft | 195 kts | 178° |
| 2026-05-07 22:58 | 46.26095 | 8.64310 | 13464 ft | 194 kts | 178° |
| 2026-05-07 22:58 | 46.24751 | 8.64486 | 13384 ft | 194 kts | 178° |
| 2026-05-07 22:59 | 46.23403 | 8.64676 | 13304 ft | 195 kts | 178° |
| 2026-05-07 22:59 | 46.22048 | 8.64872 | 13228 ft | 196 kts | 178° |
| 2026-05-07 22:59 | 46.20692 | 8.65054 | 13144 ft | 196 kts | 178° |
| 2026-05-07 22:59 | 46.19352 | 8.65244 | 13068 ft | 197 kts | 178° |
| 2026-05-07 23:00 | 46.17993 | 8.65437 | 12982 ft | 195 kts | 178° |
| 2026-05-07 23:00 | 46.16655 | 8.65626 | 12989 ft | 192 kts | 178° |
| 2026-05-07 23:00 | 46.15334 | 8.65806 | 12995 ft | 189 kts | 178° |
| 2026-05-07 23:00 | 46.14030 | 8.65989 | 12994 ft | 187 kts | 178° |
| 2026-05-07 23:01 | 46.12743 | 8.66172 | 12995 ft | 185 kts | 178° |
| 2026-05-07 23:01 | 46.11477 | 8.66475 | 12974 ft | 186 kts | 165° |
| 2026-05-07 23:01 | 46.10326 | 8.67400 | 12846 ft | 194 kts | 145° |
| 2026-05-07 23:01 | 46.09431 | 8.68885 | 12703 ft | 200 kts | 124° |
| 2026-05-07 23:02 | 46.08724 | 8.70630 | 12577 ft | 203 kts | 124° |
| 2026-05-07 23:02 | 46.07985 | 8.72377 | 12459 ft | 205 kts | 124° |
| 2026-05-07 23:02 | 46.07248 | 8.74134 | 12337 ft | 209 kts | 124° |
| 2026-05-07 23:02 | 46.06497 | 8.75940 | 12211 ft | 211 kts | 124° |
| 2026-05-07 23:03 | 46.05736 | 8.77754 | 12089 ft | 212 kts | 124° |
| 2026-05-07 23:03 | 46.04976 | 8.79573 | 11957 ft | 211 kts | 124° |
| 2026-05-07 23:03 | 46.04227 | 8.81373 | 11834 ft | 208 kts | 124° |
| 2026-05-07 23:03 | 46.03487 | 8.83177 | 11697 ft | 210 kts | 122° |
| 2026-05-07 23:04 | 46.02768 | 8.85009 | 11539 ft | 209 kts | 123° |
| 2026-05-07 23:04 | 46.02041 | 8.86795 | 11392 ft | 206 kts | 123° |
| 2026-05-07 23:04 | 46.01165 | 8.88363 | 11232 ft | 199 kts | 143° |
| 2026-05-07 23:04 | 45.99998 | 8.89375 | 11055 ft | 194 kts | 161° |
| 2026-05-07 23:05 | 45.98699 | 8.89781 | 10879 ft | 190 kts | 180° |
| 2026-05-07 23:05 | 45.97401 | 8.89579 | 10707 ft | 187 kts | 198° |
| 2026-05-07 23:05 | 45.96290 | 8.89028 | 10552 ft | 185 kts | 201° |
| 2026-05-07 23:05 | 45.95066 | 8.88449 | 10383 ft | 185 kts | 200° |
| 2026-05-07 23:06 | 45.93856 | 8.87863 | 10213 ft | 186 kts | 201° |
| 2026-05-07 23:06 | 45.92630 | 8.87250 | 10042 ft | 186 kts | 201° |
| 2026-05-07 23:06 | 45.91464 | 8.86474 | 9865 ft | 184 kts | 217° |
| 2026-05-07 23:06 | 45.90570 | 8.85163 | 9682 ft | 185 kts | 236° |
| 2026-05-07 23:07 | 45.89989 | 8.83515 | 9492 ft | 185 kts | 246° |
| 2026-05-07 23:07 | 45.89448 | 8.81850 | 9363 ft | 184 kts | 244° |
| 2026-05-07 23:07 | 45.88901 | 8.80206 | 9228 ft | 182 kts | 245° |
| 2026-05-07 23:07 | 45.88292 | 8.78629 | 9095 ft | 182 kts | 228° |
| 2026-05-07 23:08 | 45.87226 | 8.77713 | 8952 ft | 177 kts | 198° |
| 2026-05-07 23:08 | 45.86016 | 8.77697 | 8769 ft | 177 kts | 166° |
| 2026-05-07 23:08 | 45.84960 | 8.78584 | 8584 ft | 179 kts | 135° |
| 2026-05-07 23:08 | 45.84380 | 8.80142 | 8418 ft | 179 kts | 104° |
| 2026-05-07 23:09 | 45.84439 | 8.81914 | 8265 ft | 181 kts | 71° |
| 2026-05-07 23:09 | 45.85142 | 8.83387 | 8110 ft | 181 kts | 39° |
| 2026-05-07 23:09 | 45.85475 | 8.83724 | 8051 ft | 181 kts | 28° |